sensor_id;sensor_type;location;lat;lon;timestamp;temperature;humidity
45803;DHT22;31504;51.716;9.184;2024-03-25T00:00:12;21.20;45.10
45803;DHT22;31504;51.716;9.184;2024-03-25T00:03:13;21.20;45.20
45803;DHT22;31504;51.716;9.184;2024-03-25T00:06:13;21.20;45.10
45803;DHT22;31504;51.716;9.184;2024-03-25T00:09:14;21.20;45.10
45803;DHT22;31504;51.716;9.184;2024-03-25T00:12:14;21.20;45.10
45803;DHT22;31504;51.716;9.184;2024-03-25T00:15:15;21.20;45.10
45803;DHT22;31504;51.716;9.184;2024-03-25T00:18:15;21.20;45.10
45803;DHT22;31504;51.716;9.184;2024-03-25T00:21:16;21.20;45.00
45803;DHT22;31504;51.716;9.184;2024-03-25T00:24:16;21.20;45.00
45803;DHT22;31504;51.716;9.184;2024-03-25T00:27:17;21.20;45.00
45803;DHT22;31504;51.716;9.184;2024-03-25T00:30:17;21.20;45.00
45803;DHT22;31504;51.716;9.184;2024-03-25T00:33:18;21.20;45.00
45803;DHT22;31504;51.716;9.184;2024-03-25T00:36:18;21.20;45.00
45803;DHT22;31504;51.716;9.184;2024-03-25T00:39:19;21.20;45.00
45803;DHT22;31504;51.716;9.184;2024-03-25T00:42:19;21.20;45.00
45803;DHT22;31504;51.716;9.184;2024-03-25T00:45:20;21.20;44.90
45803;DHT22;31504;51.716;9.184;2024-03-25T00:48:20;21.20;44.90
45803;DHT22;31504;51.716;9.184;2024-03-25T00:51:20;21.20;45.50
45803;DHT22;31504;51.716;9.184;2024-03-25T00:54:21;21.20;44.90
45803;DHT22;31504;51.716;9.184;2024-03-25T00:57:23;21.20;44.90
45803;DHT22;31504;51.716;9.184;2024-03-25T01:00:24;21.20;45.00
45803;DHT22;31504;51.716;9.184;2024-03-25T01:03:24;21.20;44.90
45803;DHT22;31504;51.716;9.184;2024-03-25T01:06:24;21.20;45.00
45803;DHT22;31504;51.716;9.184;2024-03-25T01:09:25;21.20;45.00
45803;DHT22;31504;51.716;9.184;2024-03-25T01:12:25;21.20;45.50
45803;DHT22;31504;51.716;9.184;2024-03-25T01:15:26;21.20;44.80
45803;DHT22;31504;51.716;9.184;2024-03-25T01:18:26;21.20;44.80
45803;DHT22;31504;51.716;9.184;2024-03-25T01:21:27;21.20;44.90
45803;DHT22;31504;51.716;9.184;2024-03-25T01:24:27;21.20;44.80
45803;DHT22;31504;51.716;9.184;2024-03-25T01:27:28;21.20;44.90
45803;DHT22;31504;51.716;9.184;2024-03-25T01:30:28;21.20;44.90
45803;DHT22;31504;51.716;9.184;2024-03-25T01:33:29;21.20;44.90
45803;DHT22;31504;51.716;9.184;2024-03-25T01:36:30;21.20;44.90
45803;DHT22;31504;51.716;9.184;2024-03-25T01:39:30;21.20;44.80
45803;DHT22;31504;51.716;9.184;2024-03-25T01:42:31;21.20;44.80
45803;DHT22;31504;51.716;9.184;2024-03-25T01:45:32;21.20;44.80
45803;DHT22;31504;51.716;9.184;2024-03-25T01:48:33;21.20;44.70
45803;DHT22;31504;51.716;9.184;2024-03-25T01:51:33;21.20;44.70
45803;DHT22;31504;51.716;9.184;2024-03-25T01:54:34;21.20;44.80
45803;DHT22;31504;51.716;9.184;2024-03-25T01:57:34;21.20;44.80
45803;DHT22;31504;51.716;9.184;2024-03-25T02:00:35;21.20;44.80
45803;DHT22;31504;51.716;9.184;2024-03-25T02:03:35;21.20;44.80
45803;DHT22;31504;51.716;9.184;2024-03-25T02:06:36;21.20;44.80
45803;DHT22;31504;51.716;9.184;2024-03-25T02:09:37;21.20;44.80
45803;DHT22;31504;51.716;9.184;2024-03-25T02:12:38;21.20;44.70
45803;DHT22;31504;51.716;9.184;2024-03-25T02:15:39;21.20;44.70
45803;DHT22;31504;51.716;9.184;2024-03-25T02:18:40;21.20;44.70
45803;DHT22;31504;51.716;9.184;2024-03-25T02:21:41;21.20;44.70
45803;DHT22;31504;51.716;9.184;2024-03-25T02:24:41;21.20;44.70
45803;DHT22;31504;51.716;9.184;2024-03-25T02:27:42;21.20;44.70
45803;DHT22;31504;51.716;9.184;2024-03-25T02:30:43;21.20;44.80
45803;DHT22;31504;51.716;9.184;2024-03-25T02:33:43;21.20;44.80
45803;DHT22;31504;51.716;9.184;2024-03-25T02:36:44;21.20;44.80
45803;DHT22;31504;51.716;9.184;2024-03-25T02:39:44;21.20;44.70
45803;DHT22;31504;51.716;9.184;2024-03-25T02:42:45;21.20;44.70
45803;DHT22;31504;51.716;9.184;2024-03-25T02:45:45;21.20;44.70
45803;DHT22;31504;51.716;9.184;2024-03-25T02:48:46;21.20;44.70
45803;DHT22;31504;51.716;9.184;2024-03-25T02:51:46;21.20;44.70
45803;DHT22;31504;51.716;9.184;2024-03-25T02:54:47;21.20;44.70
45803;DHT22;31504;51.716;9.184;2024-03-25T02:57:47;21.20;44.80
45803;DHT22;31504;51.716;9.184;2024-03-25T03:00:48;21.20;44.80
45803;DHT22;31504;51.716;9.184;2024-03-25T03:03:48;21.20;44.70
45803;DHT22;31504;51.716;9.184;2024-03-25T03:06:48;21.20;45.30
45803;DHT22;31504;51.716;9.184;2024-03-25T03:09:49;21.20;44.70
45803;DHT22;31504;51.716;9.184;2024-03-25T03:12:49;21.20;44.70
45803;DHT22;31504;51.716;9.184;2024-03-25T03:15:50;21.20;44.70
45803;DHT22;31504;51.716;9.184;2024-03-25T03:18:50;21.20;44.70
45803;DHT22;31504;51.716;9.184;2024-03-25T03:21:50;21.20;44.80
45803;DHT22;31504;51.716;9.184;2024-03-25T03:24:51;21.20;44.70
45803;DHT22;31504;51.716;9.184;2024-03-25T03:27:51;21.20;45.30
45803;DHT22;31504;51.716;9.184;2024-03-25T03:30:52;21.20;44.70
45803;DHT22;31504;51.716;9.184;2024-03-25T03:33:52;21.20;44.80
45803;DHT22;31504;51.716;9.184;2024-03-25T03:36:52;21.20;44.70
45803;DHT22;31504;51.716;9.184;2024-03-25T03:39:53;21.20;44.80
45803;DHT22;31504;51.716;9.184;2024-03-25T03:42:53;21.20;44.80
45803;DHT22;31504;51.716;9.184;2024-03-25T03:45:54;21.20;44.80
45803;DHT22;31504;51.716;9.184;2024-03-25T03:48:54;21.20;44.80
45803;DHT22;31504;51.716;9.184;2024-03-25T03:51:54;21.20;44.70
45803;DHT22;31504;51.716;9.184;2024-03-25T03:54:55;21.20;44.70
45803;DHT22;31504;51.716;9.184;2024-03-25T03:57:55;21.20;44.70
45803;DHT22;31504;51.716;9.184;2024-03-25T04:00:56;21.20;44.70
45803;DHT22;31504;51.716;9.184;2024-03-25T04:03:56;21.20;44.70
45803;DHT22;31504;51.716;9.184;2024-03-25T04:06:56;21.20;44.70
45803;DHT22;31504;51.716;9.184;2024-03-25T04:09:57;21.20;44.80
45803;DHT22;31504;51.716;9.184;2024-03-25T04:12:57;21.20;44.70
45803;DHT22;31504;51.716;9.184;2024-03-25T04:16:00;21.20;44.70
45803;DHT22;31504;51.716;9.184;2024-03-25T04:19:02;21.20;44.70
45803;DHT22;31504;51.716;9.184;2024-03-25T04:22:02;21.20;44.70
45803;DHT22;31504;51.716;9.184;2024-03-25T04:25:03;21.20;44.70
45803;DHT22;31504;51.716;9.184;2024-03-25T04:28:04;21.20;44.70
45803;DHT22;31504;51.716;9.184;2024-03-25T04:31:07;21.20;44.70
45803;DHT22;31504;51.716;9.184;2024-03-25T04:34:07;21.20;44.70
45803;DHT22;31504;51.716;9.184;2024-03-25T04:37:09;21.10;44.90
45803;DHT22;31504;51.716;9.184;2024-03-25T04:40:10;21.20;45.10
45803;DHT22;31504;51.716;9.184;2024-03-25T04:43:12;21.20;45.30
45803;DHT22;31504;51.716;9.184;2024-03-25T04:46:12;21.20;45.30
45803;DHT22;31504;51.716;9.184;2024-03-25T04:49:13;21.20;45.40
45803;DHT22;31504;51.716;9.184;2024-03-25T04:52:13;21.30;45.50
45803;DHT22;31504;51.716;9.184;2024-03-25T04:55:15;21.30;45.60
45803;DHT22;31504;51.716;9.184;2024-03-25T04:58:16;21.20;45.60
45803;DHT22;31504;51.716;9.184;2024-03-25T05:01:16;21.20;45.70
45803;DHT22;31504;51.716;9.184;2024-03-25T05:04:17;21.20;45.70
45803;DHT22;31504;51.716;9.184;2024-03-25T05:07:18;21.20;45.70
45803;DHT22;31504;51.716;9.184;2024-03-25T05:10:19;21.30;45.70
45803;DHT22;31504;51.716;9.184;2024-03-25T05:13:19;21.30;45.70
45803;DHT22;31504;51.716;9.184;2024-03-25T05:16:19;21.20;45.70
45803;DHT22;31504;51.716;9.184;2024-03-25T05:19:20;21.20;45.70
45803;DHT22;31504;51.716;9.184;2024-03-25T05:22:20;21.20;45.70
45803;DHT22;31504;51.716;9.184;2024-03-25T05:25:21;21.20;45.80
45803;DHT22;31504;51.716;9.184;2024-03-25T05:28:24;21.20;45.80
45803;DHT22;31504;51.716;9.184;2024-03-25T05:31:25;21.20;45.80
45803;DHT22;31504;51.716;9.184;2024-03-25T05:34:26;21.20;45.80
45803;DHT22;31504;51.716;9.184;2024-03-25T05:37:27;21.20;45.70
45803;DHT22;31504;51.716;9.184;2024-03-25T05:40:28;21.20;45.70
45803;DHT22;31504;51.716;9.184;2024-03-25T05:43:28;21.20;45.70
45803;DHT22;31504;51.716;9.184;2024-03-25T05:46:29;21.30;45.70
45803;DHT22;31504;51.716;9.184;2024-03-25T05:49:29;21.20;45.70
45803;DHT22;31504;51.716;9.184;2024-03-25T05:52:29;21.20;45.70
45803;DHT22;31504;51.716;9.184;2024-03-25T05:55:30;21.20;45.70
45803;DHT22;31504;51.716;9.184;2024-03-25T05:58:30;21.20;45.70
45803;DHT22;31504;51.716;9.184;2024-03-25T06:01:31;21.20;45.70
45803;DHT22;31504;51.716;9.184;2024-03-25T06:04:31;21.30;45.70
45803;DHT22;31504;51.716;9.184;2024-03-25T06:07:31;21.30;45.60
45803;DHT22;31504;51.716;9.184;2024-03-25T06:10:36;21.30;45.70
45803;DHT22;31504;51.716;9.184;2024-03-25T06:13:36;21.30;45.70
45803;DHT22;31504;51.716;9.184;2024-03-25T06:16:36;21.30;45.70
45803;DHT22;31504;51.716;9.184;2024-03-25T06:19:37;21.30;45.60
45803;DHT22;31504;51.716;9.184;2024-03-25T06:22:37;21.20;45.60
45803;DHT22;31504;51.716;9.184;2024-03-25T06:25:38;21.30;45.60
45803;DHT22;31504;51.716;9.184;2024-03-25T06:28:38;21.30;45.60
45803;DHT22;31504;51.716;9.184;2024-03-25T06:31:39;21.30;45.60
45803;DHT22;31504;51.716;9.184;2024-03-25T06:34:58;21.20;45.60
45803;DHT22;31504;51.716;9.184;2024-03-25T06:38:01;21.20;45.60
45803;DHT22;31504;51.716;9.184;2024-03-25T06:41:02;21.20;45.60
45803;DHT22;31504;51.716;9.184;2024-03-25T06:44:02;21.20;45.60
45803;DHT22;31504;51.716;9.184;2024-03-25T06:47:03;21.20;45.60
45803;DHT22;31504;51.716;9.184;2024-03-25T06:50:03;21.20;45.50
45803;DHT22;31504;51.716;9.184;2024-03-25T06:53:04;21.30;45.60
45803;DHT22;31504;51.716;9.184;2024-03-25T06:56:04;21.30;45.50
45803;DHT22;31504;51.716;9.184;2024-03-25T06:59:05;21.20;45.50
45803;DHT22;31504;51.716;9.184;2024-03-25T07:02:06;21.30;45.50
45803;DHT22;31504;51.716;9.184;2024-03-25T07:05:07;21.20;45.50
45803;DHT22;31504;51.716;9.184;2024-03-25T07:08:08;21.30;45.60
45803;DHT22;31504;51.716;9.184;2024-03-25T07:11:08;21.20;45.60
45803;DHT22;31504;51.716;9.184;2024-03-25T07:14:09;21.20;45.60
45803;DHT22;31504;51.716;9.184;2024-03-25T07:17:09;21.20;45.60
45803;DHT22;31504;51.716;9.184;2024-03-25T07:20:10;21.30;45.60
45803;DHT22;31504;51.716;9.184;2024-03-25T07:23:11;21.20;45.60
45803;DHT22;31504;51.716;9.184;2024-03-25T07:26:11;21.20;45.60
45803;DHT22;31504;51.716;9.184;2024-03-25T07:29:12;21.20;45.60
45803;DHT22;31504;51.716;9.184;2024-03-25T07:32:12;21.20;45.60
45803;DHT22;31504;51.716;9.184;2024-03-25T07:35:12;21.20;45.50
45803;DHT22;31504;51.716;9.184;2024-03-25T07:38:13;21.20;45.40
45803;DHT22;31504;51.716;9.184;2024-03-25T07:41:13;21.20;45.30
45803;DHT22;31504;51.716;9.184;2024-03-25T07:44:14;21.20;45.40
45803;DHT22;31504;51.716;9.184;2024-03-25T07:47:14;21.20;45.40
45803;DHT22;31504;51.716;9.184;2024-03-25T07:50:15;21.20;45.50
45803;DHT22;31504;51.716;9.184;2024-03-25T07:53:15;21.20;45.60
45803;DHT22;31504;51.716;9.184;2024-03-25T07:56:15;21.20;45.60
45803;DHT22;31504;51.716;9.184;2024-03-25T07:59:16;21.20;45.70
45803;DHT22;31504;51.716;9.184;2024-03-25T08:02:16;21.20;45.80
45803;DHT22;31504;51.716;9.184;2024-03-25T08:05:17;21.20;45.80
45803;DHT22;31504;51.716;9.184;2024-03-25T08:08:20;21.20;45.80
45803;DHT22;31504;51.716;9.184;2024-03-25T08:11:20;21.30;45.80
45803;DHT22;31504;51.716;9.184;2024-03-25T08:14:21;21.30;45.80
45803;DHT22;31504;51.716;9.184;2024-03-25T08:17:22;21.30;45.80
45803;DHT22;31504;51.716;9.184;2024-03-25T08:20:22;21.30;45.80
45803;DHT22;31504;51.716;9.184;2024-03-25T08:23:23;21.30;45.80
45803;DHT22;31504;51.716;9.184;2024-03-25T08:26:23;21.20;45.80
45803;DHT22;31504;51.716;9.184;2024-03-25T08:29:24;21.20;45.80
45803;DHT22;31504;51.716;9.184;2024-03-25T08:32:24;21.20;45.90
45803;DHT22;31504;51.716;9.184;2024-03-25T08:35:25;21.20;45.90
45803;DHT22;31504;51.716;9.184;2024-03-25T08:38:25;21.20;45.90
45803;DHT22;31504;51.716;9.184;2024-03-25T08:41:25;21.30;46.40
45803;DHT22;31504;51.716;9.184;2024-03-25T08:44:26;21.30;45.90
45803;DHT22;31504;51.716;9.184;2024-03-25T08:47:26;21.20;45.80
45803;DHT22;31504;51.716;9.184;2024-03-25T08:50:27;21.20;45.90
45803;DHT22;31504;51.716;9.184;2024-03-25T08:53:27;21.20;45.90
45803;DHT22;31504;51.716;9.184;2024-03-25T08:56:27;21.20;45.90
45803;DHT22;31504;51.716;9.184;2024-03-25T08:59:28;21.20;46.00
45803;DHT22;31504;51.716;9.184;2024-03-25T09:02:29;21.20;46.10
45803;DHT22;31504;51.716;9.184;2024-03-25T09:05:29;21.30;46.20
45803;DHT22;31504;51.716;9.184;2024-03-25T09:08:30;21.30;46.80
45803;DHT22;31504;51.716;9.184;2024-03-25T09:11:37;21.30;46.20
45803;DHT22;31504;51.716;9.184;2024-03-25T09:14:37;21.30;46.20
45803;DHT22;31504;51.716;9.184;2024-03-25T09:17:38;21.30;46.30
45803;DHT22;31504;51.716;9.184;2024-03-25T09:20:39;21.30;46.30
45803;DHT22;31504;51.716;9.184;2024-03-25T09:23:39;21.30;46.40
45803;DHT22;31504;51.716;9.184;2024-03-25T09:26:40;21.30;46.40
45803;DHT22;31504;51.716;9.184;2024-03-25T09:29:40;21.30;46.50
45803;DHT22;31504;51.716;9.184;2024-03-25T09:32:41;21.20;46.30
45803;DHT22;31504;51.716;9.184;2024-03-25T09:35:42;21.20;46.30
45803;DHT22;31504;51.716;9.184;2024-03-25T09:38:43;21.20;46.30
45803;DHT22;31504;51.716;9.184;2024-03-25T09:41:43;21.30;46.40
45803;DHT22;31504;51.716;9.184;2024-03-25T09:44:45;21.20;46.30
45803;DHT22;31504;51.716;9.184;2024-03-25T09:47:46;21.30;46.40
45803;DHT22;31504;51.716;9.184;2024-03-25T09:50:46;21.30;46.40
45803;DHT22;31504;51.716;9.184;2024-03-25T09:53:47;21.30;46.40
45803;DHT22;31504;51.716;9.184;2024-03-25T09:56:47;21.20;46.50
45803;DHT22;31504;51.716;9.184;2024-03-25T09:59:49;21.30;46.60
45803;DHT22;31504;51.716;9.184;2024-03-25T10:02:49;21.30;46.60
45803;DHT22;31504;51.716;9.184;2024-03-25T10:05:50;21.30;47.20
45803;DHT22;31504;51.716;9.184;2024-03-25T10:08:53;21.30;46.50
45803;DHT22;31504;51.716;9.184;2024-03-25T10:11:53;21.30;46.50
45803;DHT22;31504;51.716;9.184;2024-03-25T10:14:54;21.30;46.60
45803;DHT22;31504;51.716;9.184;2024-03-25T10:17:54;21.30;46.60
45803;DHT22;31504;51.716;9.184;2024-03-25T10:20:54;21.30;46.60
45803;DHT22;31504;51.716;9.184;2024-03-25T10:23:56;21.20;46.70
45803;DHT22;31504;51.716;9.184;2024-03-25T10:26:57;21.20;46.70
45803;DHT22;31504;51.716;9.184;2024-03-25T10:29:59;21.20;46.70
45803;DHT22;31504;51.716;9.184;2024-03-25T10:33:00;21.30;46.60
45803;DHT22;31504;51.716;9.184;2024-03-25T10:36:00;21.30;46.60
45803;DHT22;31504;51.716;9.184;2024-03-25T10:39:02;21.30;46.60
45803;DHT22;31504;51.716;9.184;2024-03-25T10:42:07;21.30;46.70
45803;DHT22;31504;51.716;9.184;2024-03-25T10:45:08;21.30;46.60
45803;DHT22;31504;51.716;9.184;2024-03-25T10:48:10;21.30;46.60
45803;DHT22;31504;51.716;9.184;2024-03-25T10:51:13;21.30;46.60
45803;DHT22;31504;51.716;9.184;2024-03-25T10:54:13;21.30;46.60
45803;DHT22;31504;51.716;9.184;2024-03-25T10:57:14;21.30;46.50
45803;DHT22;31504;51.716;9.184;2024-03-25T11:00:15;21.30;46.40
45803;DHT22;31504;51.716;9.184;2024-03-25T11:03:16;21.30;47.00
45803;DHT22;31504;51.716;9.184;2024-03-25T11:06:16;21.30;46.40
45803;DHT22;31504;51.716;9.184;2024-03-25T11:09:26;21.30;46.40
45803;DHT22;31504;51.716;9.184;2024-03-25T11:12:31;21.30;46.40
45803;DHT22;31504;51.716;9.184;2024-03-25T11:15:35;21.30;46.40
45803;DHT22;31504;51.716;9.184;2024-03-25T11:18:38;21.30;46.50
45803;DHT22;31504;51.716;9.184;2024-03-25T11:21:38;21.30;46.50
45803;DHT22;31504;51.716;9.184;2024-03-25T11:24:43;21.30;46.40
45803;DHT22;31504;51.716;9.184;2024-03-25T11:27:44;21.30;46.40
45803;DHT22;31504;51.716;9.184;2024-03-25T11:30:44;21.30;46.40
45803;DHT22;31504;51.716;9.184;2024-03-25T11:33:45;21.30;46.40
45803;DHT22;31504;51.716;9.184;2024-03-25T11:36:45;21.30;46.40
45803;DHT22;31504;51.716;9.184;2024-03-25T11:39:48;21.30;46.40
45803;DHT22;31504;51.716;9.184;2024-03-25T11:42:48;21.30;46.50
45803;DHT22;31504;51.716;9.184;2024-03-25T11:45:49;21.30;46.50
45803;DHT22;31504;51.716;9.184;2024-03-25T11:48:49;21.30;46.50
45803;DHT22;31504;51.716;9.184;2024-03-25T11:51:50;21.20;46.50
45803;DHT22;31504;51.716;9.184;2024-03-25T11:54:55;21.30;46.50
45803;DHT22;31504;51.716;9.184;2024-03-25T11:57:55;21.30;46.40
45803;DHT22;31504;51.716;9.184;2024-03-25T12:00:56;21.30;46.40
45803;DHT22;31504;51.716;9.184;2024-03-25T12:03:57;21.30;46.40
45803;DHT22;31504;51.716;9.184;2024-03-25T12:06:57;21.30;46.40
45803;DHT22;31504;51.716;9.184;2024-03-25T12:09:58;21.30;46.40
45803;DHT22;31504;51.716;9.184;2024-03-25T12:13:17;21.30;46.50
45803;DHT22;31504;51.716;9.184;2024-03-25T12:16:18;21.30;46.40
45803;DHT22;31504;51.716;9.184;2024-03-25T12:19:19;21.30;46.30
45803;DHT22;31504;51.716;9.184;2024-03-25T12:22:20;21.30;46.40
45803;DHT22;31504;51.716;9.184;2024-03-25T12:25:20;21.30;46.40
45803;DHT22;31504;51.716;9.184;2024-03-25T12:28:21;21.30;46.30
45803;DHT22;31504;51.716;9.184;2024-03-25T12:31:23;21.30;46.30
45803;DHT22;31504;51.716;9.184;2024-03-25T12:34:26;21.30;46.30
45803;DHT22;31504;51.716;9.184;2024-03-25T12:37:26;21.30;46.30
45803;DHT22;31504;51.716;9.184;2024-03-25T12:40:27;21.30;46.30
45803;DHT22;31504;51.716;9.184;2024-03-25T12:43:28;21.30;46.30
45803;DHT22;31504;51.716;9.184;2024-03-25T12:46:29;21.30;46.30
45803;DHT22;31504;51.716;9.184;2024-03-25T12:49:29;21.30;46.30
45803;DHT22;31504;51.716;9.184;2024-03-25T12:52:30;21.30;46.20
45803;DHT22;31504;51.716;9.184;2024-03-25T12:55:30;21.30;46.20
45803;DHT22;31504;51.716;9.184;2024-03-25T12:58:31;21.30;46.10
45803;DHT22;31504;51.716;9.184;2024-03-25T13:01:31;21.30;46.10
45803;DHT22;31504;51.716;9.184;2024-03-25T13:04:32;21.30;46.10
45803;DHT22;31504;51.716;9.184;2024-03-25T13:07:32;21.30;46.10
45803;DHT22;31504;51.716;9.184;2024-03-25T13:10:33;21.30;46.20
45803;DHT22;31504;51.716;9.184;2024-03-25T13:13:34;21.30;46.20
45803;DHT22;31504;51.716;9.184;2024-03-25T13:16:35;21.30;46.10
45803;DHT22;31504;51.716;9.184;2024-03-25T13:19:35;21.30;45.90
45803;DHT22;31504;51.716;9.184;2024-03-25T13:22:35;21.30;45.80
45803;DHT22;31504;51.716;9.184;2024-03-25T13:25:36;21.30;45.70
45803;DHT22;31504;51.716;9.184;2024-03-25T13:28:36;21.20;45.80
45803;DHT22;31504;51.716;9.184;2024-03-25T13:31:37;21.20;45.80
45803;DHT22;31504;51.716;9.184;2024-03-25T13:34:37;21.20;45.70
45803;DHT22;31504;51.716;9.184;2024-03-25T13:37:37;21.20;45.80
45803;DHT22;31504;51.716;9.184;2024-03-25T13:40:38;21.20;45.70
45803;DHT22;31504;51.716;9.184;2024-03-25T13:43:42;21.20;45.60
45803;DHT22;31504;51.716;9.184;2024-03-25T13:46:42;21.30;45.70
45803;DHT22;31504;51.716;9.184;2024-03-25T13:49:43;21.30;45.70
45803;DHT22;31504;51.716;9.184;2024-03-25T13:52:43;21.30;45.70
45803;DHT22;31504;51.716;9.184;2024-03-25T13:55:44;21.30;45.60
45803;DHT22;31504;51.716;9.184;2024-03-25T13:58:44;21.30;45.70
45803;DHT22;31504;51.716;9.184;2024-03-25T14:01:44;21.30;45.70
45803;DHT22;31504;51.716;9.184;2024-03-25T14:04:45;21.30;45.70
45803;DHT22;31504;51.716;9.184;2024-03-25T14:07:46;21.30;45.80
45803;DHT22;31504;51.716;9.184;2024-03-25T14:10:56;21.30;45.70
45803;DHT22;31504;51.716;9.184;2024-03-25T14:13:56;21.30;45.70
45803;DHT22;31504;51.716;9.184;2024-03-25T14:16:56;21.30;45.60
45803;DHT22;31504;51.716;9.184;2024-03-25T14:19:57;21.30;45.60
45803;DHT22;31504;51.716;9.184;2024-03-25T14:22:57;21.30;45.60
45803;DHT22;31504;51.716;9.184;2024-03-25T14:25:58;21.30;45.50
45803;DHT22;31504;51.716;9.184;2024-03-25T14:28:58;21.30;45.60
45803;DHT22;31504;51.716;9.184;2024-03-25T14:32:00;21.30;45.60
45803;DHT22;31504;51.716;9.184;2024-03-25T14:35:00;21.30;45.60
45803;DHT22;31504;51.716;9.184;2024-03-25T14:38:01;21.30;45.60
45803;DHT22;31504;51.716;9.184;2024-03-25T14:41:02;21.30;45.60
45803;DHT22;31504;51.716;9.184;2024-03-25T14:44:02;21.30;45.60
45803;DHT22;31504;51.716;9.184;2024-03-25T14:47:03;21.30;45.60
45803;DHT22;31504;51.716;9.184;2024-03-25T14:50:04;21.30;45.50
45803;DHT22;31504;51.716;9.184;2024-03-25T14:53:07;21.30;45.50
45803;DHT22;31504;51.716;9.184;2024-03-25T14:56:07;21.30;45.50
45803;DHT22;31504;51.716;9.184;2024-03-25T14:59:08;21.30;45.40
45803;DHT22;31504;51.716;9.184;2024-03-25T15:02:08;21.30;45.30
45803;DHT22;31504;51.716;9.184;2024-03-25T15:05:13;21.30;45.90
45803;DHT22;31504;51.716;9.184;2024-03-25T15:08:13;21.30;45.20
45803;DHT22;31504;51.716;9.184;2024-03-25T15:11:13;21.20;45.10
45803;DHT22;31504;51.716;9.184;2024-03-25T15:14:14;21.20;45.10
45803;DHT22;31504;51.716;9.184;2024-03-25T15:17:14;21.20;45.00
45803;DHT22;31504;51.716;9.184;2024-03-25T15:20:15;21.20;45.00
45803;DHT22;31504;51.716;9.184;2024-03-25T15:23:15;21.20;45.00
45803;DHT22;31504;51.716;9.184;2024-03-25T15:26:16;21.20;44.90
45803;DHT22;31504;51.716;9.184;2024-03-25T15:29:16;21.20;44.80
45803;DHT22;31504;51.716;9.184;2024-03-25T15:32:17;21.20;44.70
45803;DHT22;31504;51.716;9.184;2024-03-25T15:35:17;21.20;44.70
45803;DHT22;31504;51.716;9.184;2024-03-25T15:38:17;21.20;44.70
45803;DHT22;31504;51.716;9.184;2024-03-25T15:41:18;21.20;44.60
45803;DHT22;31504;51.716;9.184;2024-03-25T15:44:18;21.20;44.60
45803;DHT22;31504;51.716;9.184;2024-03-25T15:47:19;21.20;44.60
45803;DHT22;31504;51.716;9.184;2024-03-25T15:50:20;21.20;44.60
45803;DHT22;31504;51.716;9.184;2024-03-25T15:53:20;21.20;44.60
45803;DHT22;31504;51.716;9.184;2024-03-25T15:56:21;21.20;44.60
45803;DHT22;31504;51.716;9.184;2024-03-25T15:59:21;21.20;44.50
45803;DHT22;31504;51.716;9.184;2024-03-25T16:02:22;21.20;44.50
45803;DHT22;31504;51.716;9.184;2024-03-25T16:05:22;21.20;44.50
45803;DHT22;31504;51.716;9.184;2024-03-25T16:08:23;21.20;44.40
45803;DHT22;31504;51.716;9.184;2024-03-25T16:11:23;21.20;44.40
45803;DHT22;31504;51.716;9.184;2024-03-25T16:14:24;21.20;44.40
45803;DHT22;31504;51.716;9.184;2024-03-25T16:17:24;21.20;44.30
45803;DHT22;31504;51.716;9.184;2024-03-25T16:20:31;21.20;44.30
45803;DHT22;31504;51.716;9.184;2024-03-25T16:23:31;21.20;44.30
45803;DHT22;31504;51.716;9.184;2024-03-25T16:26:32;21.20;44.30
45803;DHT22;31504;51.716;9.184;2024-03-25T16:29:32;21.10;44.40
45803;DHT22;31504;51.716;9.184;2024-03-25T16:32:33;21.20;44.50
45803;DHT22;31504;51.716;9.184;2024-03-25T16:35:33;21.20;44.70
45803;DHT22;31504;51.716;9.184;2024-03-25T16:38:34;21.20;44.80
45803;DHT22;31504;51.716;9.184;2024-03-25T16:41:34;21.20;44.90
45803;DHT22;31504;51.716;9.184;2024-03-25T16:44:35;21.20;45.00
45803;DHT22;31504;51.716;9.184;2024-03-25T16:47:35;21.20;45.00
45803;DHT22;31504;51.716;9.184;2024-03-25T16:50:36;21.20;45.10
45803;DHT22;31504;51.716;9.184;2024-03-25T16:53:37;21.20;45.10
45803;DHT22;31504;51.716;9.184;2024-03-25T16:56:38;21.20;45.20
45803;DHT22;31504;51.716;9.184;2024-03-25T16:59:38;21.20;45.30
45803;DHT22;31504;51.716;9.184;2024-03-25T17:02:38;21.20;45.30
45803;DHT22;31504;51.716;9.184;2024-03-25T17:05:39;21.20;45.30
45803;DHT22;31504;51.716;9.184;2024-03-25T17:08:39;21.20;45.30
45803;DHT22;31504;51.716;9.184;2024-03-25T17:11:40;21.20;45.20
45803;DHT22;31504;51.716;9.184;2024-03-25T17:14:40;21.20;45.10
45803;DHT22;31504;51.716;9.184;2024-03-25T17:17:40;21.20;45.00
45803;DHT22;31504;51.716;9.184;2024-03-25T17:20:42;21.20;44.90
45803;DHT22;31504;51.716;9.184;2024-03-25T17:23:43;21.20;44.80
45803;DHT22;31504;51.716;9.184;2024-03-25T17:26:43;21.20;44.80
45803;DHT22;31504;51.716;9.184;2024-03-25T17:29:47;21.20;45.30
45803;DHT22;31504;51.716;9.184;2024-03-25T17:32:47;21.20;44.70
45803;DHT22;31504;51.716;9.184;2024-03-25T17:35:48;21.20;44.60
45803;DHT22;31504;51.716;9.184;2024-03-25T17:38:48;21.20;44.40
45803;DHT22;31504;51.716;9.184;2024-03-25T17:41:49;21.20;44.40
45803;DHT22;31504;51.716;9.184;2024-03-25T17:44:49;21.20;44.40
45803;DHT22;31504;51.716;9.184;2024-03-25T17:47:50;21.20;44.30
45803;DHT22;31504;51.716;9.184;2024-03-25T17:50:54;21.20;44.20
45803;DHT22;31504;51.716;9.184;2024-03-25T17:53:55;21.20;44.20
45803;DHT22;31504;51.716;9.184;2024-03-25T17:56:55;21.20;44.20
45803;DHT22;31504;51.716;9.184;2024-03-25T17:59:56;21.20;44.20
45803;DHT22;31504;51.716;9.184;2024-03-25T18:02:56;21.20;44.20
45803;DHT22;31504;51.716;9.184;2024-03-25T18:05:57;21.10;44.10
45803;DHT22;31504;51.716;9.184;2024-03-25T18:08:59;21.20;44.10
45803;DHT22;31504;51.716;9.184;2024-03-25T18:12:00;21.20;44.10
45803;DHT22;31504;51.716;9.184;2024-03-25T18:15:00;21.20;44.00
45803;DHT22;31504;51.716;9.184;2024-03-25T18:18:01;21.20;44.10
45803;DHT22;31504;51.716;9.184;2024-03-25T18:21:01;21.20;44.20
45803;DHT22;31504;51.716;9.184;2024-03-25T18:24:02;21.20;44.20
45803;DHT22;31504;51.716;9.184;2024-03-25T18:27:02;21.20;44.30
45803;DHT22;31504;51.716;9.184;2024-03-25T18:30:04;21.20;44.40
45803;DHT22;31504;51.716;9.184;2024-03-25T18:33:05;21.20;44.30
45803;DHT22;31504;51.716;9.184;2024-03-25T18:36:05;21.20;44.20
45803;DHT22;31504;51.716;9.184;2024-03-25T18:39:05;21.20;44.20
45803;DHT22;31504;51.716;9.184;2024-03-25T18:42:06;21.10;44.10
45803;DHT22;31504;51.716;9.184;2024-03-25T18:45:07;21.10;44.00
45803;DHT22;31504;51.716;9.184;2024-03-25T18:48:07;21.10;44.00
45803;DHT22;31504;51.716;9.184;2024-03-25T18:51:08;21.10;43.90
45803;DHT22;31504;51.716;9.184;2024-03-25T18:54:08;21.20;43.90
45803;DHT22;31504;51.716;9.184;2024-03-25T18:57:09;21.20;43.80
45803;DHT22;31504;51.716;9.184;2024-03-25T19:00:09;21.20;43.90